Terminal Aerodrome Forecast
Issued by NWS Sioux Falls, SD

Current Version | Previous Version | Text Only | Print | Product List | Glossary On
Versions: 1 2 3 4 5 6 7 8 9 10 11 12 13 14 15 16 17 18 19 20 21 22 23 24 25 26 27 28 29 30 31 32 33 34 35 36
000
FTUS43 KFSD 211127
TAFSUX
TAF
KSUX 211127Z 2112/2212 29009KT P6SM SCT100
     FM211500 32014G20KT P6SM BKN100
     FM211800 34022G30KT P6SM BKN100
     FM212200 34020G30KT P6SM FEW100
     FM220200 34011KT P6SM SKC
     FM220800 33006KT P6SM SKC=

USA.gov is the U.S. government's official web portal to all federal, state and local government web resources and services.